createdAt,value
2022-10-24T00:01:25.209Z,98159.59
2022-10-24T00:03:51.887Z,98163.13
2022-10-24T00:06:19.913Z,98155.94
2022-10-24T00:08:46.926Z,98149.59
2022-10-24T00:11:25.486Z,98146.25
2022-10-24T00:13:52.958Z,98158.84
2022-10-24T00:16:19.637Z,98146.34
2022-10-24T00:18:46.176Z,98151.59
2022-10-24T00:21:13.533Z,98138.28
2022-10-24T00:23:43.532Z,98144.69
2022-10-24T00:26:11.250Z,98138.66
2022-10-24T00:28:38.671Z,98142.41
2022-10-24T00:31:07.685Z,98145.84
2022-10-24T00:33:34.390Z,98155.28
2022-10-24T00:36:00.914Z,98137.25
2022-10-24T00:38:27.468Z,98126.38
2022-10-24T00:40:53.930Z,98129.91
2022-10-24T00:43:25.567Z,98133.16
2022-10-24T00:45:57.678Z,98128.06
2022-10-24T00:48:38.214Z,98128.00
2022-10-24T00:51:11.164Z,98131.34
2022-10-24T00:53:44.777Z,98135.03
2022-10-24T00:56:14.572Z,98140.25
2022-10-24T00:58:43.123Z,98131.34
2022-10-24T01:01:09.942Z,98136.66
2022-10-24T01:03:36.601Z,98136.63
2022-10-24T01:06:23.444Z,98133.94
2022-10-24T01:09:18.407Z,98138.28
2022-10-24T01:12:20.325Z,98132.16
2022-10-24T01:14:54.482Z,98125.31
2022-10-24T01:17:42.900Z,98132.47
2022-10-24T01:20:27.990Z,98135.03
2022-10-24T01:23:19.281Z,98136.00
2022-10-24T01:25:57.841Z,98133.41
2022-10-24T01:28:37.212Z,98137.75
2022-10-24T01:31:09.831Z,98142.41
2022-10-24T01:33:41.951Z,98144.19
2022-10-24T01:36:14.963Z,98146.94
2022-10-24T01:38:46.889Z,98149.72
2022-10-24T01:41:21.709Z,98156.69
2022-10-24T01:43:54.507Z,98140.53
2022-10-24T01:46:29.815Z,98145.94
2022-10-24T01:49:05.227Z,98144.22
2022-10-24T01:51:33.570Z,98137.91
2022-10-24T01:54:02.050Z,98124.63
2022-10-24T01:56:28.577Z,98133.50
2022-10-24T01:59:05.116Z,98129.06
2022-10-24T02:01:32.168Z,98138.72
2022-10-24T02:04:04.411Z,98128.97
2022-10-24T02:06:42.548Z,98128.25
2022-10-24T02:09:17.399Z,98133.28
2022-10-24T02:11:47.292Z,98132.28
2022-10-24T02:14:21.144Z,98132.34
2022-10-24T02:16:47.833Z,98127.72
2022-10-24T02:19:14.763Z,98119.00
2022-10-24T02:22:31.931Z,98102.97
2022-10-24T02:25:07.308Z,98104.03
2022-10-24T02:27:41.576Z,98098.91
2022-10-24T02:30:12.587Z,98108.44
2022-10-24T02:32:43.018Z,98114.78
2022-10-24T02:35:12.451Z,98113.84
2022-10-24T02:37:47.553Z,98114.72
2022-10-24T02:40:17.158Z,98108.31
2022-10-24T02:42:46.473Z,98113.59
2022-10-24T02:45:18.427Z,98111.59
2022-10-24T02:47:46.233Z,98097.25
2022-10-24T02:50:13.558Z,98099.06
2022-10-24T02:52:41.967Z,98096.22
2022-10-24T02:55:09.374Z,98090.25
2022-10-24T02:57:35.959Z,98080.56
2022-10-24T03:00:02.517Z,98078.91
2022-10-24T03:02:28.969Z,98081.41
2022-10-24T03:04:55.477Z,98079.56
2022-10-24T03:07:22.032Z,98074.22
2022-10-24T03:09:48.615Z,98063.66
2022-10-24T03:12:16.498Z,98068.00
2022-10-24T03:14:43.653Z,98073.03
2022-10-24T03:17:10.180Z,98068.59
2022-10-24T03:19:38.450Z,98071.28
2022-10-24T03:22:05.025Z,98056.13
2022-10-24T03:24:43.720Z,98065.03
2022-10-24T03:27:11.914Z,98065.94
2022-10-24T03:29:38.403Z,98073.88
2022-10-24T03:32:05.622Z,98068.44
2022-10-24T03:34:32.165Z,98065.03
2022-10-24T03:36:58.661Z,98071.16
2022-10-24T03:39:25.145Z,98065.88
2022-10-24T03:41:51.698Z,98057.75
2022-10-24T03:44:18.153Z,98058.69
2022-10-24T03:46:44.623Z,98053.47
2022-10-24T03:49:11.128Z,98060.53
2022-10-24T03:51:37.633Z,98055.41
2022-10-24T03:54:04.213Z,98049.03
2022-10-24T03:56:30.806Z,98057.88
2022-10-24T03:58:57.296Z,98065.81
2022-10-24T04:01:24.575Z,98073.75
2022-10-24T04:03:51.617Z,98078.97
2022-10-24T04:06:18.140Z,98079.03
2022-10-24T04:08:44.667Z,98078.13
2022-10-24T04:11:11.859Z,98067.84
2022-10-24T04:13:38.453Z,98059.81
2022-10-24T04:16:05.231Z,98060.75
2022-10-24T04:18:31.805Z,98061.63
2022-10-24T04:20:58.242Z,98054.47
2022-10-24T04:23:24.781Z,98063.28
2022-10-24T04:25:51.243Z,98073.13
2022-10-24T04:28:17.852Z,98076.47
2022-10-24T04:30:44.481Z,98058.88
2022-10-24T04:33:11.165Z,98057.91
2022-10-24T04:35:37.693Z,98061.56
2022-10-24T04:38:04.283Z,98053.53
2022-10-24T04:40:30.772Z,98052.66
2022-10-24T04:42:59.174Z,98051.00
2022-10-24T04:45:25.712Z,98054.59
2022-10-24T04:47:52.218Z,98057.94
2022-10-24T04:50:18.904Z,98055.09
2022-10-24T04:52:45.372Z,98046.16
2022-10-24T04:55:12.068Z,98043.72
2022-10-24T04:57:38.563Z,98053.50
2022-10-24T05:00:05.928Z,98050.94
2022-10-24T05:02:32.460Z,98050.19
2022-10-24T05:04:58.959Z,98043.88
2022-10-24T05:07:25.437Z,98036.56
2022-10-24T05:09:51.946Z,98037.50
2022-10-24T05:14:47.161Z,98032.13
2022-10-24T05:17:14.522Z,98028.56
2022-10-24T05:19:41.094Z,98034.59
2022-10-24T05:22:10.723Z,98025.94
2022-10-24T05:24:37.742Z,98022.31
2022-10-24T05:27:04.357Z,98033.72
2022-10-24T05:29:30.888Z,98026.53
2022-10-24T05:31:57.435Z,98030.94
2022-10-24T05:34:24.137Z,98029.06
2022-10-24T05:36:50.610Z,98022.91
2022-10-24T05:39:17.132Z,98028.25
2022-10-24T05:41:46.289Z,98031.69
2022-10-24T05:44:14.453Z,98034.34
2022-10-24T05:46:41.097Z,98028.13
2022-10-24T05:49:08.061Z,98035.13
2022-10-24T05:51:34.515Z,98037.72
2022-10-24T05:54:01.059Z,98042.19
2022-10-24T05:56:27.592Z,98042.94
2022-10-24T05:58:56.707Z,98029.50
2022-10-24T06:01:23.578Z,98025.03
2022-10-24T06:03:50.554Z,98031.25
2022-10-24T06:06:17.193Z,98043.06
2022-10-24T06:08:43.767Z,98009.28
2022-10-24T06:11:11.257Z,98017.91
2022-10-24T06:13:38.800Z,98040.09
2022-10-24T06:16:10.652Z,98033.00
2022-10-24T06:18:37.696Z,98036.50
2022-10-24T06:21:06.363Z,98033.84
2022-10-24T06:23:33.116Z,98038.25
2022-10-24T06:25:59.609Z,98032.91
2022-10-24T06:28:26.242Z,98022.22
2022-10-24T06:30:54.541Z,98027.16
2022-10-24T06:33:21.133Z,98027.94
2022-10-24T06:35:47.653Z,98035.06
2022-10-24T06:38:14.341Z,98028.47
2022-10-24T06:40:42.635Z,98032.72
2022-10-24T06:43:14.021Z,98028.16
2022-10-24T06:45:40.523Z,98026.28
2022-10-24T06:48:07.082Z,98026.84
2022-10-24T06:50:33.656Z,98018.97
2022-10-24T06:53:00.203Z,98040.88
2022-10-24T06:55:26.759Z,98030.41
2022-10-24T06:57:53.635Z,98033.00
2022-10-24T07:00:20.190Z,98020.56
2022-10-24T07:02:46.969Z,98044.56
2022-10-24T07:05:14.403Z,98047.00
2022-10-24T07:07:43.235Z,98047.81
2022-10-24T07:10:12.558Z,98045.06
2022-10-24T07:12:39.259Z,98052.06
2022-10-24T07:15:06.701Z,98042.38
2022-10-24T07:17:39.587Z,98039.56
2022-10-24T07:20:06.619Z,98054.59
2022-10-24T07:22:33.399Z,98047.22
2022-10-24T07:25:00.078Z,98023.16
2022-10-24T07:27:26.728Z,98048.16
2022-10-24T07:29:53.610Z,98039.19
2022-10-24T07:32:21.282Z,98055.09
2022-10-24T07:34:48.062Z,98065.81
2022-10-24T07:37:15.891Z,98058.72
2022-10-24T07:39:43.146Z,98063.94
2022-10-24T07:42:12.109Z,98058.47
2022-10-24T07:44:38.839Z,98077.09
2022-10-24T07:47:07.152Z,98074.53
2022-10-24T07:49:33.902Z,98073.56
2022-10-24T07:52:00.495Z,98054.63
2022-10-24T07:54:30.635Z,98055.56
2022-10-24T07:56:59.490Z,98066.19
2022-10-24T07:59:41.278Z,98064.22
2022-10-24T08:02:11.034Z,98065.22
2022-10-24T08:04:37.656Z,98063.34
2022-10-24T08:07:04.159Z,98058.09
2022-10-24T08:09:30.651Z,98064.28
2022-10-24T08:11:57.149Z,98057.06
2022-10-24T08:14:23.718Z,98065.66
2022-10-24T08:16:50.215Z,98066.53
2022-10-24T08:19:16.710Z,98064.78
2022-10-24T08:21:43.221Z,98056.66
2022-10-24T08:24:09.678Z,98044.94
2022-10-24T08:26:37.278Z,98062.59
2022-10-24T08:29:05.891Z,98061.50
2022-10-24T08:31:32.476Z,98053.69
2022-10-24T08:33:59.481Z,98050.09
2022-10-24T08:36:30.139Z,98055.44
2022-10-24T08:38:56.958Z,98050.09
2022-10-24T08:41:35.984Z,98056.53
2022-10-24T08:44:05.144Z,98057.47
2022-10-24T08:46:38.177Z,98056.59
2022-10-24T08:49:16.544Z,98053.97
2022-10-24T08:51:48.512Z,98048.63
2022-10-24T08:54:22.722Z,98034.16
2022-10-24T08:56:49.987Z,98049.34
2022-10-24T08:59:16.509Z,98038.72
2022-10-24T09:02:04.184Z,98032.34
2022-10-24T09:04:39.646Z,98041.13
2022-10-24T09:07:14.425Z,98041.00
2022-10-24T09:09:46.698Z,98048.09
2022-10-24T09:12:16.106Z,98050.63
2022-10-24T09:14:45.370Z,98040.72
2022-10-24T09:17:38.364Z,98044.94
2022-10-24T09:20:12.352Z,98041.03
2022-10-24T09:22:42.075Z,98053.41
2022-10-24T09:25:18.451Z,98034.81
2022-10-24T09:27:47.362Z,98011.81
2022-10-24T09:30:30.035Z,98032.28
2022-10-24T09:33:15.375Z,98042.19
2022-10-24T09:35:43.098Z,98031.34
2022-10-24T09:38:33.572Z,98028.75
2022-10-24T09:41:14.893Z,98032.34
2022-10-24T09:43:44.123Z,98039.44
2022-10-24T09:46:36.620Z,98028.81
2022-10-24T09:49:17.540Z,98041.19
2022-10-24T09:51:49.617Z,98063.53
2022-10-24T09:54:18.820Z,98040.31
2022-10-24T09:57:16.759Z,98057.97
2022-10-24T10:00:01.915Z,98045.38
2022-10-24T10:02:34.491Z,98055.22
2022-10-24T10:05:03.806Z,98043.78
2022-10-24T10:07:30.222Z,98045.66
2022-10-24T10:09:59.801Z,98052.03
2022-10-24T10:12:36.926Z,98030.66
2022-10-24T10:15:33.999Z,98063.63
2022-10-24T10:18:10.087Z,98059.59
2022-10-24T10:20:42.490Z,98058.03
2022-10-24T10:23:17.491Z,98057.56
2022-10-24T10:25:45.380Z,98053.44
2022-10-24T10:28:23.518Z,98062.16
2022-10-24T10:30:58.236Z,98061.41
2022-10-24T10:33:42.283Z,98056.59
2022-10-24T10:36:46.109Z,98058.28
2022-10-24T10:39:44.365Z,98068.91
2022-10-24T10:42:30.117Z,98050.09
2022-10-24T10:44:59.450Z,98056.97
2022-10-24T10:47:35.996Z,98067.25
2022-10-24T10:50:21.384Z,98067.91
2022-10-24T10:52:49.244Z,98070.94
2022-10-24T10:55:24.030Z,98059.03
2022-10-24T10:58:15.130Z,98065.50
2022-10-24T11:00:57.583Z,98056.59
2022-10-24T11:03:37.919Z,98077.22
2022-10-24T11:06:49.154Z,98080.81
2022-10-24T11:09:28.535Z,98068.25
2022-10-24T11:12:22.666Z,98080.13
2022-10-24T11:14:56.360Z,98070.03
2022-10-24T11:17:34.222Z,98075.59
2022-10-24T11:20:07.886Z,98062.69
2022-10-24T11:22:40.489Z,98082.84
2022-10-24T11:25:18.732Z,98073.69
2022-10-24T11:27:55.035Z,98078.44
2022-10-24T11:30:41.627Z,98084.34
2022-10-24T11:33:14.478Z,98076.22
2022-10-24T11:36:15.860Z,98089.72
2022-10-24T11:39:07.762Z,98097.59
2022-10-24T11:41:43.253Z,98103.41
2022-10-24T11:44:23.255Z,98094.09
2022-10-24T11:47:04.223Z,98099.78
2022-10-24T11:49:41.186Z,98085.19
2022-10-24T11:52:27.698Z,98098.28
2022-10-24T11:55:07.692Z,98092.53
2022-10-24T11:57:35.753Z,98102.97
2022-10-24T12:00:02.495Z,98104.25
2022-10-24T12:02:53.199Z,98099.69
2022-10-24T12:08:36.454Z,98101.19
2022-10-24T12:11:24.678Z,98108.13
2022-10-24T12:16:49.785Z,98108.22
2022-10-24T12:19:19.766Z,98108.28
2022-10-24T12:21:52.004Z,98112.41
2022-10-24T12:24:27.955Z,98116.97
2022-10-24T12:27:02.689Z,98112.53
2022-10-24T12:29:33.579Z,98119.66
2022-10-24T12:32:39.694Z,98113.50
2022-10-24T12:35:31.974Z,98111.84
2022-10-24T12:37:59.108Z,98109.06
2022-10-24T12:40:48.890Z,98114.88
2022-10-24T12:43:34.508Z,98128.88
2022-10-24T12:46:24.369Z,98126.84
2022-10-24T12:48:56.536Z,98121.53
2022-10-24T12:51:38.020Z,98120.84
2022-10-24T12:54:16.499Z,98116.41
2022-10-24T12:56:52.534Z,98123.59
2022-10-24T12:59:19.841Z,98128.28
2022-10-24T13:01:48.818Z,98129.63
2022-10-24T13:04:24.597Z,98128.69
2022-10-24T13:07:09.353Z,98133.31
2022-10-24T13:09:47.568Z,98125.13
2022-10-24T13:12:59.786Z,98143.59
2022-10-24T13:15:54.735Z,98124.97
2022-10-24T13:18:24.188Z,98123.53
2022-10-24T13:21:12.679Z,98120.19
2022-10-24T13:23:47.238Z,98125.56
2022-10-24T13:26:37.377Z,98133.63
2022-10-24T13:29:05.816Z,98128.53
2022-10-24T13:31:32.265Z,98114.06
2022-10-24T13:34:16.520Z,98117.78
2022-10-24T13:36:44.317Z,98112.59
2022-10-24T13:39:24.284Z,98122.06
2022-10-24T13:41:58.337Z,98107.97
2022-10-24T13:44:36.983Z,98112.31
2022-10-24T13:47:13.843Z,98118.38
2022-10-24T13:49:51.281Z,98115.28
2022-10-24T13:52:26.405Z,98119.81
2022-10-24T13:54:59.697Z,98121.00
2022-10-24T13:57:30.226Z,98131.19
2022-10-24T13:59:59.653Z,98129.78
2022-10-24T14:02:32.116Z,98131.47
2022-10-24T14:05:00.347Z,98122.34
2022-10-24T14:07:30.362Z,98136.47
2022-10-24T14:10:17.380Z,98130.13
2022-10-24T14:12:45.043Z,98120.28
2022-10-24T14:15:21.388Z,98130.13
2022-10-24T14:18:14.663Z,98122.34
2022-10-24T14:20:41.460Z,98119.03
2022-10-24T14:23:26.146Z,98118.28
2022-10-24T14:25:56.174Z,98126.31
2022-10-24T14:28:27.311Z,98129.06
2022-10-24T14:31:02.402Z,98131.81
2022-10-24T14:33:31.993Z,98131.81
2022-10-24T14:36:02.312Z,98127.63
2022-10-24T14:38:29.674Z,98128.78
2022-10-24T14:41:08.378Z,98125.31
2022-10-24T14:43:41.184Z,98137.97
2022-10-24T14:46:07.529Z,98135.41
2022-10-24T14:48:34.831Z,98143.38
2022-10-24T14:51:04.129Z,98136.28
2022-10-24T14:53:32.050Z,98146.06
2022-10-24T14:56:00.584Z,98140.84
2022-10-24T14:58:31.933Z,98157.06
2022-10-24T15:00:59.787Z,98157.25
2022-10-24T15:03:29.457Z,98162.72
2022-10-24T15:06:21.998Z,98164.63
2022-10-24T15:09:04.621Z,98164.75
2022-10-24T15:11:35.497Z,98171.91
2022-10-24T15:14:07.050Z,98155.84
2022-10-24T15:16:35.451Z,98161.34
2022-10-24T15:19:04.162Z,98159.56
2022-10-24T15:21:40.350Z,98152.56
2022-10-24T15:24:16.046Z,98153.69
2022-10-24T15:26:44.843Z,98165.59
2022-10-24T15:29:14.376Z,98170.22
2022-10-24T15:31:43.828Z,98164.13
2022-10-24T15:34:16.368Z,98171.22
2022-10-24T15:36:44.545Z,98171.41
2022-10-24T15:39:10.947Z,98165.97
2022-10-24T15:41:38.649Z,98172.25
2022-10-24T15:44:31.222Z,98179.34
2022-10-24T15:46:57.882Z,98173.19
2022-10-24T15:49:24.454Z,98173.34
2022-10-24T15:51:51.650Z,98178.94
2022-10-24T15:54:21.366Z,98173.84
2022-10-24T15:56:48.116Z,98181.94
2022-10-24T15:59:14.907Z,98198.88
2022-10-24T16:01:47.356Z,98204.28
2022-10-24T16:04:14.409Z,98197.28
2022-10-24T16:06:41.077Z,98200.84
2022-10-24T16:09:14.292Z,98191.94
2022-10-24T16:11:41.128Z,98203.66
2022-10-24T16:14:07.660Z,98210.03
2022-10-24T16:16:37.041Z,98202.06
2022-10-24T16:19:03.514Z,98203.91
2022-10-24T16:21:29.997Z,98208.28
2022-10-24T16:23:56.554Z,98206.66
2022-10-24T16:26:23.113Z,98205.97
2022-10-24T16:28:49.684Z,98207.84
2022-10-24T16:31:18.655Z,98214.94
2022-10-24T16:33:48.220Z,98206.78
2022-10-24T16:36:18.386Z,98207.72
2022-10-24T16:38:47.371Z,98207.78
2022-10-24T16:41:22.785Z,98217.75
2022-10-24T16:43:50.315Z,98221.56
2022-10-24T16:46:19.523Z,98225.13
2022-10-24T16:48:46.441Z,98236.63
2022-10-24T16:51:16.433Z,98236.63
2022-10-24T16:53:42.960Z,98244.56
2022-10-24T16:56:11.514Z,98235.63
2022-10-24T16:58:39.359Z,98238.22
2022-10-24T17:01:09.196Z,98246.22
2022-10-24T17:03:36.714Z,98231.78
2022-10-24T17:06:04.010Z,98246.50
2022-10-24T17:08:31.358Z,98242.50
2022-10-24T17:10:58.496Z,98241.88
2022-10-24T17:13:25.241Z,98249.31
2022-10-24T17:15:51.796Z,98239.81
2022-10-24T17:18:20.080Z,98242.41
2022-10-24T17:20:47.377Z,98235.28
2022-10-24T17:23:17.797Z,98236.09
2022-10-24T17:25:45.663Z,98232.56
2022-10-24T17:28:14.249Z,98235.28
2022-10-24T17:30:40.865Z,98230.06
2022-10-24T17:33:07.770Z,98240.72
2022-10-24T17:35:37.910Z,98244.53
2022-10-24T17:38:17.836Z,98250.91
2022-10-24T17:40:48.979Z,98249.16
2022-10-24T17:43:25.525Z,98257.09
2022-10-24T17:45:54.343Z,98252.53
2022-10-24T17:48:21.684Z,98243.66
2022-10-24T17:50:48.987Z,98240.16
2022-10-24T17:53:17.831Z,98252.78
2022-10-24T17:55:47.147Z,98254.56
2022-10-24T17:58:15.271Z,98257.47
2022-10-24T18:00:42.236Z,98255.44
2022-10-24T18:03:08.921Z,98267.03
2022-10-24T18:05:38.249Z,98267.16
2022-10-24T18:08:07.453Z,98269.81
2022-10-24T18:10:38.149Z,98275.22
2022-10-24T18:13:04.731Z,98274.22
2022-10-24T18:15:32.948Z,98285.59
2022-10-24T18:17:59.617Z,98274.06
2022-10-24T18:20:26.543Z,98271.44
2022-10-24T18:22:53.046Z,98273.00
2022-10-24T18:25:22.715Z,98272.09
2022-10-24T18:27:50.799Z,98282.72
2022-10-24T18:30:19.428Z,98273.72
2022-10-24T18:32:47.503Z,98275.50
2022-10-24T18:35:15.413Z,98279.13
2022-10-24T18:37:41.991Z,98282.41
2022-10-24T18:40:09.545Z,98276.19
2022-10-24T18:42:50.581Z,98281.59
2022-10-24T18:45:34.514Z,98290.38
2022-10-24T18:48:04.494Z,98293.91
2022-10-24T18:50:32.465Z,98295.88
2022-10-24T18:53:08.686Z,98295.94
2022-10-24T18:55:37.164Z,98286.06
2022-10-24T18:58:04.663Z,98291.59
2022-10-24T19:00:33.147Z,98285.31
2022-10-24T19:03:11.837Z,98279.06
2022-10-24T19:05:51.969Z,98278.41
2022-10-24T19:08:26.747Z,98286.53
2022-10-24T19:10:56.547Z,98291.81
2022-10-24T19:13:27.474Z,98284.72
2022-10-24T19:16:00.415Z,98283.88
2022-10-24T19:18:33.721Z,98276.91
2022-10-24T19:21:00.960Z,98283.16
2022-10-24T19:23:27.862Z,98285.03
2022-10-24T19:25:54.434Z,98280.59
2022-10-24T19:28:21.632Z,98270.00
2022-10-24T19:30:52.697Z,98278.75
2022-10-24T19:33:19.378Z,98276.97
2022-10-24T19:35:48.737Z,98271.69
2022-10-24T19:38:16.787Z,98273.38
2022-10-24T19:40:51.955Z,98276.03
2022-10-24T19:43:19.764Z,98269.00
2022-10-24T19:45:50.593Z,98285.84
2022-10-24T19:48:34.373Z,98284.19
2022-10-24T19:51:05.871Z,98292.22
2022-10-24T19:53:35.174Z,98288.66
2022-10-24T19:56:19.016Z,98277.94
2022-10-24T19:58:47.913Z,98286.75
2022-10-24T20:01:19.094Z,98287.81
2022-10-24T20:03:47.316Z,98290.53
2022-10-24T20:06:14.516Z,98286.06
2022-10-24T20:08:41.289Z,98291.56
2022-10-24T20:11:09.100Z,98298.59
2022-10-24T20:13:35.889Z,98303.94
2022-10-24T20:16:05.942Z,98300.50
2022-10-24T20:18:34.960Z,98294.34
2022-10-24T20:21:07.215Z,98291.72
2022-10-24T20:23:34.645Z,98304.22
2022-10-24T20:26:04.499Z,98306.94
2022-10-24T20:28:34.841Z,98307.81
2022-10-24T20:31:01.643Z,98307.91
2022-10-24T20:33:28.199Z,98316.91
2022-10-24T20:35:59.522Z,98309.66
2022-10-24T20:38:27.442Z,98311.50
2022-10-24T20:40:54.475Z,98317.81
2022-10-24T20:43:21.081Z,98288.53
2022-10-24T20:45:47.702Z,98315.09
2022-10-24T20:48:14.241Z,98309.66
2022-10-24T20:50:40.757Z,98309.66
2022-10-24T20:53:07.248Z,98302.69
2022-10-24T20:55:45.192Z,98329.41
2022-10-24T20:58:14.414Z,98324.09
2022-10-24T21:03:15.035Z,98319.56
2022-10-24T21:05:41.603Z,98334.59
2022-10-24T21:08:08.066Z,98326.75
2022-10-24T21:10:37.691Z,98330.34
2022-10-24T21:13:04.269Z,98335.84
2022-10-24T21:15:30.906Z,98342.94
2022-10-24T21:17:57.440Z,98344.81
2022-10-24T21:20:23.906Z,98341.13
2022-10-24T21:22:50.392Z,98343.75
2022-10-24T21:25:16.842Z,98338.41
2022-10-24T21:27:43.404Z,98343.75
2022-10-24T21:30:14.403Z,98345.53
2022-10-24T21:32:41.352Z,98338.41
2022-10-24T21:35:07.872Z,98346.34
2022-10-24T21:37:34.466Z,98341.94
2022-10-24T21:40:00.964Z,98344.78
2022-10-24T21:42:30.943Z,98350.97
2022-10-24T21:44:57.484Z,98368.72
2022-10-24T21:47:24.057Z,98359.09
2022-10-24T21:49:50.526Z,98368.06
2022-10-24T21:52:17.002Z,98363.59
2022-10-24T21:54:43.486Z,98365.28
2022-10-24T21:57:09.945Z,98381.16
2022-10-24T21:59:36.596Z,98371.34
2022-10-24T22:02:03.310Z,98366.84
2022-10-24T22:04:34.487Z,98373.03
2022-10-24T22:07:01.026Z,98373.91
2022-10-24T22:09:27.591Z,98385.50
2022-10-24T22:11:57.981Z,98370.56
2022-10-24T22:14:25.209Z,98370.72
2022-10-24T22:16:51.852Z,98380.53
2022-10-24T22:19:18.507Z,98383.31
2022-10-24T22:21:47.412Z,98386.16
2022-10-24T22:24:18.792Z,98400.53
2022-10-24T22:26:45.697Z,98397.16
2022-10-24T22:29:18.833Z,98402.63
2022-10-24T22:31:46.045Z,98420.56
2022-10-24T22:34:18.926Z,98422.41
2022-10-24T22:36:45.355Z,98422.56
2022-10-24T22:39:23.534Z,98420.03
2022-10-24T22:41:50.883Z,98426.22
2022-10-24T22:44:22.523Z,98421.88
2022-10-24T22:47:33.879Z,98416.78
2022-10-24T22:50:03.435Z,98426.00
2022-10-24T22:52:30.235Z,98428.94
2022-10-24T22:54:57.021Z,98429.13
2022-10-24T22:57:23.865Z,98423.94
2022-10-24T22:59:50.532Z,98422.50
2022-10-24T23:02:29.982Z,98422.63
2022-10-24T23:05:02.784Z,98415.53
2022-10-24T23:07:38.381Z,98436.97
2022-10-24T23:10:08.860Z,98433.47
2022-10-24T23:12:35.721Z,98436.31
2022-10-24T23:15:02.821Z,98434.56
2022-10-24T23:17:30.922Z,98429.25
2022-10-24T23:19:57.804Z,98428.50
2022-10-24T23:22:27.403Z,98447.00
2022-10-24T23:24:56.809Z,98452.41
2022-10-24T23:27:39.118Z,98455.09
2022-10-24T23:30:18.030Z,98457.94
2022-10-24T23:32:45.354Z,98452.84
2022-10-24T23:35:17.142Z,98452.97
2022-10-24T23:37:47.056Z,98466.41
2022-10-24T23:40:28.882Z,98453.34
2022-10-24T23:42:56.351Z,98451.47
2022-10-24T23:45:26.779Z,98452.41
2022-10-24T23:47:59.208Z,98443.44
2022-10-24T23:50:45.746Z,98434.63
2022-10-24T23:53:33.221Z,98440.03
2022-10-24T23:58:31.486Z,98447.28
